Time;durP1;ratioP1;P1;durP2;ratioP2;P2;SDS_P1;SDS_P2;PMS_P1;PMS_P2;Temp;Humidity;BMP_temperature;BMP_pressure;BME280_temperature;BME280_humidity;BME280_pressure;Samples;Min_cycle;Max_cycle;Signal;HPM_P1;HPM_P2
2022/02/24 00:01:52;;;;;;;8.33;5.70;;;;;;;;;;5066735;28;24426;-53
2022/02/24 00:04:17;;;;;;;8.50;5.45;;;;;;;;;;5076515;28;24425;-52
2022/02/24 00:06:42;;;;;;;7.97;5.70;;;;;;;;;;5087285;28;24536;-52
2022/02/24 00:09:07;;;;;;;9.13;5.80;;;;;;;;;;5067454;28;24960;-54
2022/02/24 00:11:34;;;;;;;11.67;6.07;;;;;;;;;;5065789;28;24419;-55
2022/02/24 00:13:59;;;;;;;9.35;6.00;;;;;;;;;;5066393;28;24428;-54
2022/02/24 00:16:24;;;;;;;7.22;5.65;;;;;;;;;;5066122;28;24506;-52
2022/02/24 00:18:49;;;;;;;9.10;6.28;;;;;;;;;;5055050;28;24513;-52
2022/02/24 00:21:14;;;;;;;9.25;6.25;;;;;;;;;;5054102;28;24773;-52
2022/02/24 00:23:39;;;;;;;8.05;6.20;;;;;;;;;;5066150;28;24518;-52
2022/02/24 00:26:04;;;;;;;8.68;5.90;;;;;;;;;;5068337;28;24488;-52
2022/02/24 00:28:30;;;;;;;8.15;6.03;;;;;;;;;;5065780;28;24816;-52
2022/02/24 00:30:55;;;;;;;6.97;5.60;;;;;;;;;;5073113;28;24498;-52
2022/02/24 00:33:20;;;;;;;8.65;6.38;;;;;;;;;;5064344;28;24488;-52
2022/02/24 00:35:45;;;;;;;9.05;6.28;;;;;;;;;;5067946;28;24970;-52
2022/02/24 00:38:10;;;;;;;7.33;6.03;;;;;;;;;;5071208;28;24502;-52
2022/02/24 00:40:35;;;;;;;7.70;6.10;;;;;;;;;;5066218;28;24538;-52
2022/02/24 00:43:00;;;;;;;11.30;7.10;;;;;;;;;;5064143;28;24457;-52
2022/02/24 00:45:26;;;;;;;7.10;5.90;;;;;;;;;;5063618;28;24540;-52
2022/02/24 00:47:51;;;;;;;7.90;6.60;;;;;;;;;;5067522;28;24461;-52
2022/02/24 00:50:16;;;;;;;7.80;6.32;;;;;;;;;;5067958;28;24394;-52
2022/02/24 00:52:41;;;;;;;7.73;6.70;;;;;;;;;;5067236;28;24836;-52
2022/02/24 00:55:06;;;;;;;9.00;6.78;;;;;;;;;;5067592;28;25020;-52
2022/02/24 00:57:32;;;;;;;8.10;6.60;;;;;;;;;;5068916;28;24411;-52
2022/02/24 00:59:57;;;;;;;9.20;6.53;;;;;;;;;;5069449;28;24465;-52
2022/02/24 01:02:22;;;;;;;9.52;6.30;;;;;;;;;;5067128;28;24407;-52
2022/02/24 01:04:47;;;;;;;8.17;6.10;;;;;;;;;;5067605;28;24430;-53
2022/02/24 01:07:12;;;;;;;11.00;6.55;;;;;;;;;;5067310;28;24441;-52
2022/02/24 01:09:37;;;;;;;7.27;5.77;;;;;;;;;;5067766;28;24503;-53
2022/02/24 01:12:03;;;;;;;8.63;5.83;;;;;;;;;;5067365;28;24959;-52
2022/02/24 01:14:28;;;;;;;9.30;6.40;;;;;;;;;;5067018;28;24437;-52
2022/02/24 01:16:53;;;;;;;8.53;6.40;;;;;;;;;;5067006;28;24578;-52
2022/02/24 01:19:18;;;;;;;7.93;6.77;;;;;;;;;;5068120;28;24449;-52
2022/02/24 01:21:43;;;;;;;10.60;7.10;;;;;;;;;;5066790;28;24955;-52
2022/02/24 01:24:09;;;;;;;10.07;7.10;;;;;;;;;;5066750;28;24411;-53
2022/02/24 01:26:34;;;;;;;9.03;6.60;;;;;;;;;;5067100;28;24422;-53
2022/02/24 01:28:59;;;;;;;8.63;6.38;;;;;;;;;;5067302;28;24422;-52
2022/02/24 01:31:24;;;;;;;11.98;7.43;;;;;;;;;;5075337;28;25220;-52
2022/02/24 01:33:50;;;;;;;8.87;7.10;;;;;;;;;;5066719;28;24434;-53
2022/02/24 01:36:15;;;;;;;7.57;6.77;;;;;;;;;;5066574;28;25041;-53
2022/02/24 01:38:40;;;;;;;9.93;6.77;;;;;;;;;;5066433;28;24468;-53
2022/02/24 01:41:05;;;;;;;8.52;6.55;;;;;;;;;;5066759;28;25070;-53
2022/02/24 01:43:30;;;;;;;7.60;6.50;;;;;;;;;;5068526;28;25025;-53
2022/02/24 01:45:55;;;;;;;8.63;6.87;;;;;;;;;;5079250;28;24418;-52
2022/02/24 01:48:21;;;;;;;7.20;6.50;;;;;;;;;;5066697;28;24500;-52
2022/02/24 01:50:46;;;;;;;8.60;7.00;;;;;;;;;;5071464;28;24449;-50
2022/02/24 01:53:11;;;;;;;7.93;6.40;;;;;;;;;;5077919;28;24422;-50
2022/02/24 01:55:36;;;;;;;8.27;6.37;;;;;;;;;;5065873;28;24982;-50
2022/02/24 01:58:03;;;;;;;8.95;6.22;;;;;;;;;;5066603;28;24407;-50
2022/02/24 02:00:28;;;;;;;7.50;6.13;;;;;;;;;;5071544;28;24433;-49
2022/02/24 02:02:53;;;;;;;8.23;6.03;;;;;;;;;;5066596;28;24409;-49
2022/02/24 02:05:18;;;;;;;11.20;6.90;;;;;;;;;;5084195;28;25061;-53
2022/02/24 02:07:44;;;;;;;8.20;6.50;;;;;;;;;;5086641;28;24600;-51
2022/02/24 02:10:09;;;;;;;9.75;6.90;;;;;;;;;;5071301;28;24972;-51
2022/02/24 02:12:47;;;;;;;10.90;6.97;;;;;;;;;;5079472;28;24452;-51
2022/02/24 02:15:12;;;;;;;9.63;6.80;;;;;;;;;;5068225;28;24502;-51
2022/02/24 02:17:38;;;;;;;9.40;7.10;;;;;;;;;;5086355;28;24497;-54
2022/02/24 02:20:03;;;;;;;8.33;6.17;;;;;;;;;;5064830;28;24422;-51
2022/02/24 02:22:28;;;;;;;9.00;6.60;;;;;;;;;;5066214;28;24829;-51
2022/02/24 02:25:00;;;;;;;7.18;6.47;;;;;;;;;;5064540;28;24422;-52
2022/02/24 02:27:25;;;;;;;7.15;6.10;;;;;;;;;;5063548;28;25279;-51
2022/02/24 02:29:50;;;;;;;9.03;6.20;;;;;;;;;;5065491;28;24490;-51
2022/02/24 02:32:15;;;;;;;7.87;6.00;;;;;;;;;;5066320;28;24419;-51
2022/02/24 02:34:41;;;;;;;8.00;5.80;;;;;;;;;;5065706;28;24458;-51
2022/02/24 02:37:06;;;;;;;8.00;5.80;;;;;;;;;;5068117;28;24879;-51
2022/02/24 02:39:31;;;;;;;7.60;5.82;;;;;;;;;;5065808;28;24947;-51
2022/02/24 02:41:56;;;;;;;8.00;6.27;;;;;;;;;;5067690;28;24979;-52
2022/02/24 02:44:21;;;;;;;10.02;6.00;;;;;;;;;;5065477;28;24407;-52
2022/02/24 02:46:47;;;;;;;9.00;6.50;;;;;;;;;;5065884;28;24475;-52
2022/02/24 02:49:12;;;;;;;6.77;5.53;;;;;;;;;;5065382;28;24438;-51
2022/02/24 02:51:37;;;;;;;8.23;5.55;;;;;;;;;;5067305;28;24418;-51
2022/02/24 02:54:02;;;;;;;6.90;6.20;;;;;;;;;;5077740;28;24450;-52
2022/02/24 02:56:27;;;;;;;8.70;6.27;;;;;;;;;;5063594;28;24456;-51
2022/02/24 02:58:52;;;;;;;9.20;6.30;;;;;;;;;;5062137;28;24442;-51
2022/02/24 03:01:17;;;;;;;8.98;5.90;;;;;;;;;;5064377;28;24418;-51
2022/02/24 03:03:43;;;;;;;7.53;5.70;;;;;;;;;;5063962;28;24442;-51
2022/02/24 03:06:08;;;;;;;8.47;5.90;;;;;;;;;;5062592;28;24423;-52
2022/02/24 03:08:33;;;;;;;6.50;5.90;;;;;;;;;;5064490;28;24396;-51
2022/02/24 03:10:59;;;;;;;8.80;6.32;;;;;;;;;;5060642;28;24521;-51
2022/02/24 03:13:24;;;;;;;8.50;6.50;;;;;;;;;;5063547;28;24449;-50
2022/02/24 03:15:50;;;;;;;10.20;6.65;;;;;;;;;;5063948;28;24415;-51
2022/02/24 03:18:15;;;;;;;10.50;6.60;;;;;;;;;;5064463;28;24407;-52
2022/02/24 03:20:40;;;;;;;11.67;6.37;;;;;;;;;;5064153;28;24966;-51
2022/02/24 03:23:07;;;;;;;11.45;7.13;;;;;;;;;;5064410;28;25050;-51
2022/02/24 03:25:33;;;;;;;8.30;6.82;;;;;;;;;;5071945;28;24491;-51
2022/02/24 03:27:58;;;;;;;7.90;6.80;;;;;;;;;;5067550;28;24472;-51
2022/02/24 03:30:24;;;;;;;8.35;7.05;;;;;;;;;;5063749;28;24446;-50
2022/02/24 03:32:49;;;;;;;7.47;6.75;;;;;;;;;;5067372;28;24514;-50
2022/02/24 03:35:16;;;;;;;8.90;6.80;;;;;;;;;;5066120;28;24421;-52
2022/02/24 03:37:41;;;;;;;8.65;6.38;;;;;;;;;;5067716;28;24503;-51
2022/02/24 03:40:07;;;;;;;9.00;6.43;;;;;;;;;;5067762;28;24542;-51
2022/02/24 03:42:33;;;;;;;9.35;6.38;;;;;;;;;;5067338;28;24990;-51
2022/02/24 03:44:58;;;;;;;8.30;6.35;;;;;;;;;;5068306;28;24406;-51
2022/02/24 03:47:23;;;;;;;7.68;5.63;;;;;;;;;;5067302;28;24445;-52
2022/02/24 03:49:48;;;;;;;5.88;5.28;;;;;;;;;;5074185;28;24419;-52
2022/02/24 03:52:14;;;;;;;8.10;5.40;;;;;;;;;;5075466;28;24444;-52
2022/02/24 03:54:39;;;;;;;6.00;5.20;;;;;;;;;;5068621;28;24469;-51
2022/02/24 03:57:04;;;;;;;8.43;5.63;;;;;;;;;;5068703;28;24718;-50
2022/02/24 03:59:29;;;;;;;6.65;5.43;;;;;;;;;;5068268;28;24438;-51
2022/02/24 04:01:56;;;;;;;5.72;4.45;;;;;;;;;;5069241;28;24502;-51
2022/02/24 04:04:21;;;;;;;5.05;4.60;;;;;;;;;;5068517;28;24480;-50
2022/02/24 04:06:46;;;;;;;6.20;4.23;;;;;;;;;;5068960;28;24453;-51
2022/02/24 04:09:11;;;;;;;7.25;4.70;;;;;;;;;;5068753;28;24491;-51
2022/02/24 04:11:36;;;;;;;5.00;4.40;;;;;;;;;;5070539;28;24834;-51
2022/02/24 04:14:02;;;;;;;5.03;4.50;;;;;;;;;;5078938;28;24865;-51
2022/02/24 04:16:27;;;;;;;7.20;4.20;;;;;;;;;;5070083;28;24987;-51
2022/02/24 04:18:52;;;;;;;4.60;4.10;;;;;;;;;;5075316;28;24577;-50
2022/02/24 04:21:17;;;;;;;4.90;4.25;;;;;;;;;;5061808;28;24422;-51
2022/02/24 04:23:42;;;;;;;5.18;4.55;;;;;;;;;;5068628;28;24433;-52
2022/02/24 04:26:07;;;;;;;7.00;4.67;;;;;;;;;;5064224;28;24488;-51
2022/02/24 04:28:32;;;;;;;6.17;4.60;;;;;;;;;;5070476;28;24512;-51
2022/02/24 04:30:58;;;;;;;7.20;4.90;;;;;;;;;;5068203;28;24465;-51
2022/02/24 04:33:23;;;;;;;5.80;5.00;;;;;;;;;;5063924;28;24875;-51
2022/02/24 04:35:48;;;;;;;9.17;5.57;;;;;;;;;;5067276;28;24435;-51
2022/02/24 04:38:13;;;;;;;5.90;4.80;;;;;;;;;;5067567;28;25122;-51
2022/02/24 04:40:39;;;;;;;8.77;5.30;;;;;;;;;;5067866;28;24797;-51
2022/02/24 04:43:04;;;;;;;6.93;5.60;;;;;;;;;;5067750;28;24947;-51
2022/02/24 04:45:29;;;;;;;8.27;6.00;;;;;;;;;;5080098;28;24418;-51
2022/02/24 04:47:54;;;;;;;8.60;5.80;;;;;;;;;;5067870;28;24891;-51
2022/02/24 04:50:19;;;;;;;7.40;5.75;;;;;;;;;;5082870;28;24406;-52
2022/02/24 04:52:45;;;;;;;6.70;5.60;;;;;;;;;;5067957;28;24422;-52
2022/02/24 04:55:10;;;;;;;7.57;5.90;;;;;;;;;;5067578;28;24886;-52
2022/02/24 04:57:35;;;;;;;6.90;5.50;;;;;;;;;;5068869;28;24452;-52
2022/02/24 05:00:00;;;;;;;7.23;5.70;;;;;;;;;;5074189;28;25119;-52
2022/02/24 05:02:26;;;;;;;8.20;5.63;;;;;;;;;;5066580;28;24722;-52
2022/02/24 05:04:51;;;;;;;6.70;6.00;;;;;;;;;;5067255;28;24429;-52
2022/02/24 05:07:16;;;;;;;9.27;6.40;;;;;;;;;;5068690;28;24986;-52
2022/02/24 05:09:42;;;;;;;6.60;5.50;;;;;;;;;;5075051;28;24427;-52
2022/02/24 05:12:07;;;;;;;9.17;6.00;;;;;;;;;;5067346;28;24414;-52
2022/02/24 05:14:32;;;;;;;6.60;5.85;;;;;;;;;;5067336;28;24514;-53
2022/02/24 05:16:58;;;;;;;9.20;6.10;;;;;;;;;;5076687;28;24417;-51
2022/02/24 05:19:23;;;;;;;7.55;6.00;;;;;;;;;;5067847;28;24580;-51
2022/02/24 05:21:48;;;;;;;9.57;6.13;;;;;;;;;;5071799;28;24410;-52
2022/02/24 05:24:13;;;;;;;7.78;6.00;;;;;;;;;;5082627;28;24415;-52
2022/02/24 05:26:38;;;;;;;10.13;7.47;;;;;;;;;;5066751;28;24867;-52
2022/02/24 05:29:04;;;;;;;9.80;7.37;;;;;;;;;;5067335;28;24426;-51
2022/02/24 05:31:29;;;;;;;12.63;8.00;;;;;;;;;;5066809;28;24843;-52
2022/02/24 05:33:54;;;;;;;10.32;7.78;;;;;;;;;;5070079;28;24438;-52
2022/02/24 05:36:19;;;;;;;9.75;7.45;;;;;;;;;;5066945;28;24510;-52
2022/02/24 05:38:44;;;;;;;11.97;8.20;;;;;;;;;;5074684;28;24956;-52
2022/02/24 05:41:09;;;;;;;10.65;7.50;;;;;;;;;;5059088;28;24598;-52
2022/02/24 05:43:34;;;;;;;9.40;7.78;;;;;;;;;;5066911;28;24947;-53
2022/02/24 05:46:00;;;;;;;13.00;7.93;;;;;;;;;;5066861;28;24430;-52
2022/02/24 05:48:25;;;;;;;11.50;7.93;;;;;;;;;;5067618;28;24418;-52
2022/02/24 05:50:50;;;;;;;11.07;8.30;;;;;;;;;;5072758;28;24418;-53
2022/02/24 05:53:16;;;;;;;14.60;8.70;;;;;;;;;;5067299;28;24994;-52
2022/02/24 05:55:41;;;;;;;11.85;8.00;;;;;;;;;;5067798;28;24445;-52
2022/02/24 05:58:06;;;;;;;14.03;8.40;;;;;;;;;;5065985;28;24402;-52
2022/02/24 06:00:32;;;;;;;10.97;9.03;;;;;;;;;;5070116;28;24418;-52
2022/02/24 06:02:57;;;;;;;14.32;9.75;;;;;;;;;;5069973;28;24442;-51
2022/02/24 06:05:22;;;;;;;11.03;7.67;;;;;;;;;;5067457;28;24437;-52
2022/02/24 06:07:47;;;;;;;9.88;8.65;;;;;;;;;;5073795;28;24488;-52
2022/02/24 06:10:13;;;;;;;10.30;7.63;;;;;;;;;;5065300;28;24461;-51
2022/02/24 06:12:38;;;;;;;11.32;8.10;;;;;;;;;;5059908;28;24438;-51
2022/02/24 06:15:04;;;;;;;9.30;8.20;;;;;;;;;;5071176;28;24429;-51
2022/02/24 06:17:29;;;;;;;10.60;8.80;;;;;;;;;;5085494;28;24425;-51
2022/02/24 06:19:54;;;;;;;13.20;9.50;;;;;;;;;;5068284;28;24434;-51
2022/02/24 06:22:20;;;;;;;11.73;9.68;;;;;;;;;;5066320;28;24559;-51
2022/02/24 06:24:45;;;;;;;11.40;9.10;;;;;;;;;;5065131;28;24411;-52
2022/02/24 06:27:10;;;;;;;12.93;8.80;;;;;;;;;;5066205;28;24386;-51
2022/02/24 06:29:35;;;;;;;11.27;9.47;;;;;;;;;;5064625;28;24476;-51
2022/02/24 06:32:01;;;;;;;13.03;8.70;;;;;;;;;;5066210;28;24753;-50
2022/02/24 06:34:26;;;;;;;12.15;9.02;;;;;;;;;;5065849;28;24433;-49
2022/02/24 06:36:51;;;;;;;9.90;8.17;;;;;;;;;;5065651;28;24429;-51
2022/02/24 06:39:16;;;;;;;10.50;9.40;;;;;;;;;;5069333;28;24442;-50
2022/02/24 06:41:42;;;;;;;11.93;9.07;;;;;;;;;;5062963;28;24547;-50
2022/02/24 06:44:07;;;;;;;12.50;8.80;;;;;;;;;;5063656;28;24769;-51
2022/02/24 06:46:32;;;;;;;12.40;9.10;;;;;;;;;;5061892;28;24482;-52
2022/02/24 06:48:57;;;;;;;12.20;8.43;;;;;;;;;;5063382;28;25171;-52
2022/02/24 06:51:22;;;;;;;13.93;8.45;;;;;;;;;;5063089;28;24415;-51
2022/02/24 06:53:48;;;;;;;10.90;8.50;;;;;;;;;;5062151;28;24441;-52
2022/02/24 06:56:13;;;;;;;10.80;8.00;;;;;;;;;;5061452;28;25106;-52
2022/02/24 06:58:38;;;;;;;9.68;8.05;;;;;;;;;;5062372;28;24426;-52
2022/02/24 07:01:04;;;;;;;13.80;8.40;;;;;;;;;;5068922;28;24851;-53
2022/02/24 07:03:29;;;;;;;10.70;8.80;;;;;;;;;;5072155;28;24414;-53
2022/02/24 07:05:55;;;;;;;10.60;8.10;;;;;;;;;;5062512;28;24415;-52
2022/02/24 07:08:20;;;;;;;12.20;9.40;;;;;;;;;;5068437;28;24428;-53
2022/02/24 07:10:45;;;;;;;11.45;8.70;;;;;;;;;;5070110;28;24415;-53
2022/02/24 07:13:10;;;;;;;11.07;9.30;;;;;;;;;;5063173;28;24765;-53
2022/02/24 07:15:35;;;;;;;13.77;8.65;;;;;;;;;;5062254;28;24509;-53
2022/02/24 07:18:00;;;;;;;12.82;8.85;;;;;;;;;;5062988;28;24457;-53
2022/02/24 07:20:25;;;;;;;12.75;8.45;;;;;;;;;;5075939;28;25170;-52
2022/02/24 07:22:51;;;;;;;12.38;8.68;;;;;;;;;;5068467;28;24505;-53
2022/02/24 07:25:16;;;;;;;11.95;9.02;;;;;;;;;;5075947;28;24484;-53
2022/02/24 07:27:42;;;;;;;11.30;8.43;;;;;;;;;;5069673;28;25267;-53
2022/02/24 07:30:07;;;;;;;10.13;7.73;;;;;;;;;;5066564;28;24422;-53
2022/02/24 07:32:32;;;;;;;12.67;8.27;;;;;;;;;;5065729;28;24468;-53
2022/02/24 07:34:58;;;;;;;10.83;7.90;;;;;;;;;;5064256;28;24557;-52
2022/02/24 07:37:23;;;;;;;12.40;7.50;;;;;;;;;;5065014;28;24421;-52
2022/02/24 07:39:48;;;;;;;9.23;7.30;;;;;;;;;;5065114;28;24434;-52
2022/02/24 07:42:14;;;;;;;11.30;7.13;;;;;;;;;;5059669;28;24414;-52
2022/02/24 07:44:39;;;;;;;8.50;7.10;;;;;;;;;;5063241;28;24409;-52
2022/02/24 07:47:04;;;;;;;10.10;6.73;;;;;;;;;;5065034;28;24405;-52
2022/02/24 07:49:30;;;;;;;8.77;6.30;;;;;;;;;;5065096;28;24403;-52
2022/02/24 07:51:58;;;;;;;9.20;7.00;;;;;;;;;;5046618;28;24955;-51
2022/02/24 07:54:23;;;;;;;9.38;6.70;;;;;;;;;;5064997;28;24431;-52
2022/02/24 07:56:55;;;;;;;8.17;6.10;;;;;;;;;;5064834;28;24512;-52
2022/02/24 07:59:23;;;;;;;10.57;6.53;;;;;;;;;;5065301;28;24425;-51
2022/02/24 08:01:48;;;;;;;9.45;6.80;;;;;;;;;;5064985;28;24395;-52
2022/02/24 08:04:15;;;;;;;8.37;6.50;;;;;;;;;;5064839;28;24789;-52
2022/02/24 08:06:40;;;;;;;9.38;6.20;;;;;;;;;;5064471;28;24452;-52
2022/02/24 08:09:08;;;;;;;11.30;6.40;;;;;;;;;;5066501;28;24513;-52
2022/02/24 08:11:34;;;;;;;9.98;6.53;;;;;;;;;;5068410;28;24402;-52
2022/02/24 08:13:59;;;;;;;11.47;6.77;;;;;;;;;;5068274;28;24431;-53
2022/02/24 08:16:24;;;;;;;9.20;6.33;;;;;;;;;;5068604;28;24429;-53
2022/02/24 08:18:49;;;;;;;7.45;5.70;;;;;;;;;;5061135;28;24434;-52
2022/02/24 08:21:15;;;;;;;8.50;6.40;;;;;;;;;;5045671;28;24502;-52
2022/02/24 08:23:40;;;;;;;8.03;5.50;;;;;;;;;;5048201;28;24384;-51
2022/02/24 08:26:05;;;;;;;8.00;5.50;;;;;;;;;;5048968;28;24823;-52
2022/02/24 08:28:30;;;;;;;9.50;5.80;;;;;;;;;;5048058;28;24402;-52
2022/02/24 08:30:55;;;;;;;7.13;5.10;;;;;;;;;;5048218;28;24994;-53
2022/02/24 08:33:20;;;;;;;6.57;5.70;;;;;;;;;;5048029;28;24422;-53
2022/02/24 08:35:46;;;;;;;7.13;5.00;;;;;;;;;;5048044;28;24410;-52
2022/02/24 08:38:11;;;;;;;6.78;4.55;;;;;;;;;;5048203;28;24383;-52
2022/02/24 08:40:36;;;;;;;7.10;4.77;;;;;;;;;;5048298;28;24462;-52
2022/02/24 08:43:01;;;;;;;8.13;5.30;;;;;;;;;;5048061;28;24480;-53
2022/02/24 08:45:27;;;;;;;6.63;4.63;;;;;;;;;;5048044;28;24380;-52
2022/02/24 08:47:52;;;;;;;6.72;4.72;;;;;;;;;;5047791;28;24429;-51
2022/02/24 08:50:18;;;;;;;7.43;4.55;;;;;;;;;;5047832;28;24506;-51
2022/02/24 08:52:43;;;;;;;7.90;4.70;;;;;;;;;;5047477;28;24597;-51
2022/02/24 08:55:08;;;;;;;5.50;4.20;;;;;;;;;;5048152;28;24944;-51
2022/02/24 08:57:33;;;;;;;4.93;3.90;;;;;;;;;;5047854;28;24388;-51
2022/02/24 08:59:59;;;;;;;4.90;3.80;;;;;;;;;;5047659;28;25233;-51
2022/02/24 09:02:24;;;;;;;6.80;3.95;;;;;;;;;;5047860;28;24978;-51
2022/02/24 09:04:49;;;;;;;6.33;4.00;;;;;;;;;;5051818;28;24983;-52
2022/02/24 09:07:14;;;;;;;5.00;3.90;;;;;;;;;;5067510;28;24967;-52
2022/02/24 09:09:39;;;;;;;7.90;4.15;;;;;;;;;;5067241;28;24409;-52
2022/02/24 09:12:04;;;;;;;5.93;4.10;;;;;;;;;;5068105;28;24444;-52
2022/02/24 09:14:30;;;;;;;5.53;3.70;;;;;;;;;;5067378;28;24768;-53
2022/02/24 09:16:55;;;;;;;5.30;3.43;;;;;;;;;;5067306;28;24454;-52
2022/02/24 09:19:20;;;;;;;5.95;3.40;;;;;;;;;;5067282;28;24391;-52
2022/02/24 09:21:46;;;;;;;4.00;2.93;;;;;;;;;;5066518;28;24395;-53
2022/02/24 09:24:11;;;;;;;4.20;2.90;;;;;;;;;;5067216;28;24419;-52
2022/02/24 09:26:36;;;;;;;6.13;3.85;;;;;;;;;;5067573;28;24391;-52
2022/02/24 09:29:02;;;;;;;5.60;4.00;;;;;;;;;;5066766;28;24976;-52
2022/02/24 09:31:27;;;;;;;4.70;3.70;;;;;;;;;;5067415;28;24897;-52
2022/02/24 09:33:52;;;;;;;4.70;3.50;;;;;;;;;;5067093;28;24411;-53
2022/02/24 09:36:17;;;;;;;3.50;2.90;;;;;;;;;;5067036;28;24424;-52
2022/02/24 09:38:42;;;;;;;4.80;3.40;;;;;;;;;;5066612;28;24391;-53
2022/02/24 09:41:10;;;;;;;2.50;2.05;;;;;;;;;;5066753;28;24564;-52
2022/02/24 09:43:36;;;;;;;2.88;1.52;;;;;;;;;;5055177;28;24420;-52
2022/02/24 09:46:04;;;;;;;2.60;1.65;;;;;;;;;;5057734;28;25102;-52
2022/02/24 09:48:33;;;;;;;2.20;1.50;;;;;;;;;;5047298;28;24387;-53
2022/02/24 09:50:58;;;;;;;1.70;1.60;;;;;;;;;;5046270;28;24459;-52
2022/02/24 09:53:24;;;;;;;1.40;1.23;;;;;;;;;;5046679;28;24518;-52
2022/02/24 09:55:49;;;;;;;2.57;1.37;;;;;;;;;;5046687;28;24450;-53
2022/02/24 09:58:15;;;;;;;1.73;1.10;;;;;;;;;;5046454;28;24407;-53
2022/02/24 10:00:40;;;;;;;1.70;1.60;;;;;;;;;;5046269;28;24390;-52
2022/02/24 10:03:24;;;;;;;2.30;1.80;;;;;;;;;;5046179;28;24742;-52
2022/02/24 10:05:49;;;;;;;3.08;1.83;;;;;;;;;;5046151;28;24498;-51
2022/02/24 10:08:14;;;;;;;1.35;1.20;;;;;;;;;;5046267;28;24557;-52
2022/02/24 10:10:42;;;;;;;1.80;1.60;;;;;;;;;;5046426;28;24387;-51
2022/02/24 10:13:08;;;;;;;2.50;1.70;;;;;;;;;;5046275;28;24422;-51
2022/02/24 10:15:34;;;;;;;3.90;1.60;;;;;;;;;;5046173;28;24793;-51
2022/02/24 10:18:05;;;;;;;2.47;1.67;;;;;;;;;;5045555;28;24909;-52
2022/02/24 10:20:56;;;;;;;2.22;1.40;;;;;;;;;;5064725;28;25049;-52
2022/02/24 10:23:21;;;;;;;2.40;1.38;;;;;;;;;;5053360;28;24418;-53
2022/02/24 10:25:47;;;;;;;1.98;1.48;;;;;;;;;;5066047;28;24399;-53
2022/02/24 10:28:29;;;;;;;1.80;1.40;;;;;;;;;;5065646;28;24812;-52
2022/02/24 10:30:55;;;;;;;3.05;1.38;;;;;;;;;;5066038;28;24391;-52
2022/02/24 10:33:27;;;;;;;1.95;1.38;;;;;;;;;;5065884;28;25007;-53
2022/02/24 10:35:52;;;;;;;1.40;1.30;;;;;;;;;;5065839;28;24379;-52
2022/02/24 10:38:17;;;;;;;2.30;1.30;;;;;;;;;;5065560;28;24393;-53
2022/02/24 10:40:46;;;;;;;1.67;1.50;;;;;;;;;;5065705;28;24616;-52
2022/02/24 10:43:30;;;;;;;2.00;1.35;;;;;;;;;;5065747;28;24440;-52
2022/02/24 10:46:06;;;;;;;1.98;1.30;;;;;;;;;;5065781;28;24437;-53
2022/02/24 10:48:52;;;;;;;1.50;1.40;;;;;;;;;;5065865;28;24398;-51
2022/02/24 10:51:21;;;;;;;2.15;1.52;;;;;;;;;;5064775;28;24848;-52
2022/02/24 10:53:57;;;;;;;1.88;1.20;;;;;;;;;;5065652;28;24549;-52
2022/02/24 10:56:24;;;;;;;1.67;1.20;;;;;;;;;;5066082;28;24990;-51
2022/02/24 10:58:49;;;;;;;2.30;1.50;;;;;;;;;;5065689;28;24449;-52
2022/02/24 11:01:17;;;;;;;1.50;1.30;;;;;;;;;;5065745;28;25015;-52
2022/02/24 11:03:43;;;;;;;1.90;1.10;;;;;;;;;;5065484;28;24498;-53
2022/02/24 11:06:09;;;;;;;3.05;1.50;;;;;;;;;;5065462;28;24627;-52
2022/02/24 11:08:35;;;;;;;2.10;1.30;;;;;;;;;;5065700;28;24974;-52
2022/02/24 11:11:01;;;;;;;2.70;1.50;;;;;;;;;;5065428;28;24402;-52
2022/02/24 11:13:28;;;;;;;3.10;1.93;;;;;;;;;;5065617;28;24769;-53
2022/02/24 11:15:53;;;;;;;2.53;1.40;;;;;;;;;;5065253;28;24913;-53
2022/02/24 11:18:19;;;;;;;1.90;1.50;;;;;;;;;;5065295;28;24520;-53
2022/02/24 11:20:44;;;;;;;2.10;1.50;;;;;;;;;;5065609;28;24398;-52
2022/02/24 11:23:11;;;;;;;2.57;1.80;;;;;;;;;;5065410;28;24437;-54
2022/02/24 11:25:39;;;;;;;2.22;1.40;;;;;;;;;;5065552;28;24422;-52
2022/02/24 11:28:04;;;;;;;1.63;1.40;;;;;;;;;;5065471;28;24387;-52
2022/02/24 11:30:31;;;;;;;2.20;1.67;;;;;;;;;;5065089;28;24410;-52
2022/02/24 11:32:56;;;;;;;3.03;1.40;;;;;;;;;;5064918;28;25050;-52
2022/02/24 11:35:22;;;;;;;3.50;1.60;;;;;;;;;;5065333;28;24482;-52
2022/02/24 11:37:49;;;;;;;2.22;1.33;;;;;;;;;;5065420;28;25090;-52
2022/02/24 11:40:19;;;;;;;1.63;1.40;;;;;;;;;;5065146;28;24434;-52
2022/02/24 11:43:00;;;;;;;2.22;1.50;;;;;;;;;;5065806;28;24395;-50
2022/02/24 11:45:25;;;;;;;2.33;1.50;;;;;;;;;;5064559;28;24511;-50
2022/02/24 11:47:55;;;;;;;2.60;1.30;;;;;;;;;;5068928;28;25023;-50
2022/02/24 11:50:52;;;;;;;3.33;1.65;;;;;;;;;;5068464;28;24538;-52
2022/02/24 11:53:26;;;;;;;3.50;1.70;;;;;;;;;;5013014;28;24525;-51
2022/02/24 11:55:57;;;;;;;1.92;1.70;;;;;;;;;;5068470;28;25178;-51
2022/02/24 11:58:42;;;;;;;1.83;1.50;;;;;;;;;;5068545;28;24399;-51
2022/02/24 12:01:15;;;;;;;1.80;1.30;;;;;;;;;;5068446;28;24533;-52
2022/02/24 12:03:43;;;;;;;1.50;1.25;;;;;;;;;;5068226;28;24565;-51
2022/02/24 12:06:08;;;;;;;1.65;1.30;;;;;;;;;;5068484;28;25091;-52
2022/02/24 12:08:53;;;;;;;2.90;1.70;;;;;;;;;;5068466;28;24433;-51
2022/02/24 12:11:34;;;;;;;4.30;1.83;;;;;;;;;;5068190;28;24419;-53
2022/02/24 12:13:59;;;;;;;2.50;1.90;;;;;;;;;;5068413;28;24411;-52
2022/02/24 12:16:25;;;;;;;2.60;1.60;;;;;;;;;;5068368;28;24398;-53
2022/02/24 12:18:51;;;;;;;1.70;1.42;;;;;;;;;;5049059;28;24430;-51
2022/02/24 12:21:25;;;;;;;2.00;1.60;;;;;;;;;;5066056;28;24777;-52
2022/02/24 12:23:51;;;;;;;2.47;1.55;;;;;;;;;;5068613;28;24398;-52
2022/02/24 12:26:18;;;;;;;2.30;1.40;;;;;;;;;;5068642;28;24814;-52
2022/02/24 12:28:43;;;;;;;1.90;1.50;;;;;;;;;;5067990;28;24406;-53
2022/02/24 12:31:17;;;;;;;2.10;1.40;;;;;;;;;;5068234;28;24409;-52
2022/02/24 12:33:43;;;;;;;1.90;1.50;;;;;;;;;;5068340;28;24531;-52
2022/02/24 12:36:08;;;;;;;3.08;1.83;;;;;;;;;;5068095;28;24525;-52
2022/02/24 12:38:34;;;;;;;3.33;1.80;;;;;;;;;;5068838;28;24393;-52
2022/02/24 12:40:59;;;;;;;2.17;1.80;;;;;;;;;;5067636;28;24427;-53
2022/02/24 12:43:25;;;;;;;2.53;1.70;;;;;;;;;;5068069;28;24394;-53
2022/02/24 12:45:51;;;;;;;1.95;1.60;;;;;;;;;;5067962;28;24946;-52
2022/02/24 12:48:17;;;;;;;2.20;1.50;;;;;;;;;;5068288;28;24391;-52
2022/02/24 12:50:43;;;;;;;2.23;1.60;;;;;;;;;;5067877;28;24410;-52
2022/02/24 12:53:10;;;;;;;2.72;1.50;;;;;;;;;;5067765;28;24472;-52
2022/02/24 12:55:36;;;;;;;2.17;1.30;;;;;;;;;;5067007;28;24466;-52
2022/02/24 12:58:01;;;;;;;2.50;1.40;;;;;;;;;;5068084;28;24387;-52
2022/02/24 13:00:31;;;;;;;2.30;1.60;;;;;;;;;;5067462;28;24409;-52
2022/02/24 13:02:56;;;;;;;2.00;1.42;;;;;;;;;;5067524;28;24512;-51
2022/02/24 13:05:22;;;;;;;2.55;1.70;;;;;;;;;;5067823;28;24425;-52
2022/02/24 13:10:34;;;;;;;1.85;1.60;;;;;;;;;;5067726;28;24390;-52
2022/02/24 13:12:59;;;;;;;1.80;1.30;;;;;;;;;;5067313;28;24891;-51
2022/02/24 13:15:31;;;;;;;2.67;1.40;;;;;;;;;;5067449;28;24964;-52
2022/02/24 13:17:57;;;;;;;1.80;1.20;;;;;;;;;;5067373;28;24424;-52
2022/02/24 13:20:24;;;;;;;1.83;1.40;;;;;;;;;;5067251;28;24996;-52
2022/02/24 13:22:50;;;;;;;2.42;1.30;;;;;;;;;;5067877;28;24383;-51
2022/02/24 13:25:16;;;;;;;2.90;1.50;;;;;;;;;;5067103;28;24414;-51
2022/02/24 13:27:46;;;;;;;1.80;1.30;;;;;;;;;;5067223;28;24452;-55
2022/02/24 13:30:12;;;;;;;3.25;2.05;;;;;;;;;;5066920;28;24858;-51
2022/02/24 13:32:37;;;;;;;1.45;1.30;;;;;;;;;;5067279;28;24397;-51
2022/02/24 13:35:06;;;;;;;2.30;1.70;;;;;;;;;;5067700;28;24545;-52
2022/02/24 13:37:39;;;;;;;2.60;1.50;;;;;;;;;;5067302;28;24465;-51
2022/02/24 13:40:04;;;;;;;2.40;1.52;;;;;;;;;;5066787;28;24426;-52
2022/02/24 13:42:29;;;;;;;1.57;1.40;;;;;;;;;;5067350;28;24375;-51
2022/02/24 13:44:54;;;;;;;2.25;1.70;;;;;;;;;;5063793;28;24427;-51
2022/02/24 13:47:20;;;;;;;2.70;1.60;;;;;;;;;;5064224;28;24397;-50
2022/02/24 13:49:46;;;;;;;6.50;4.80;;;;;;;;;;5066671;28;24430;-50
2022/02/24 13:52:28;;;;;;;11.17;7.00;;;;;;;;;;5066351;28;24434;-52
2022/02/24 13:54:54;;;;;;;9.40;7.60;;;;;;;;;;5066260;28;24411;-51
2022/02/24 13:57:19;;;;;;;9.38;8.00;;;;;;;;;;5066495;28;24752;-51
2022/02/24 14:00:00;;;;;;;9.35;7.55;;;;;;;;;;5066294;28;24554;-52
2022/02/24 14:02:25;;;;;;;10.43;7.80;;;;;;;;;;5066209;28;24440;-52
2022/02/24 14:04:50;;;;;;;11.15;8.00;;;;;;;;;;5066376;28;24430;-54
2022/02/24 14:07:28;;;;;;;10.83;8.17;;;;;;;;;;5065953;28;25179;-53
2022/02/24 14:10:04;;;;;;;10.17;7.60;;;;;;;;;;5066062;28;24567;-52
2022/02/24 14:12:29;;;;;;;11.97;7.70;;;;;;;;;;5066030;28;24929;-53
2022/02/24 14:14:55;;;;;;;12.82;8.00;;;;;;;;;;5065981;28;24429;-52
2022/02/24 14:17:20;;;;;;;7.73;6.60;;;;;;;;;;5065925;28;24932;-52
2022/02/24 14:19:45;;;;;;;8.18;6.43;;;;;;;;;;5064348;28;24875;-52
2022/02/24 14:22:10;;;;;;;8.93;7.00;;;;;;;;;;5064279;28;24668;-52
2022/02/24 14:24:35;;;;;;;9.80;6.70;;;;;;;;;;5064647;28;24473;-52
2022/02/24 14:27:00;;;;;;;8.13;6.80;;;;;;;;;;5063693;28;25002;-52
2022/02/24 14:29:26;;;;;;;9.90;6.70;;;;;;;;;;5064568;28;25221;-53
2022/02/24 14:31:51;;;;;;;8.30;6.75;;;;;;;;;;5064204;28;24391;-52
2022/02/24 14:34:16;;;;;;;7.73;5.90;;;;;;;;;;5064004;28;24426;-52
2022/02/24 14:36:41;;;;;;;7.65;6.07;;;;;;;;;;5064306;28;24510;-52
2022/02/24 14:39:07;;;;;;;8.30;5.90;;;;;;;;;;5064297;28;24422;-52